Time;durP1;ratioP1;P1;durP2;ratioP2;P2;SDS_P1;SDS_P2;PMS_P1;PMS_P2;Temp;Humidity;BMP_temperature;BMP_pressure;BME280_temperature;BME280_humidity;BME280_pressure;Samples;Min_cycle;Max_cycle;Signal;HPM_P1;HPM_P2
2021/10/26 00:00:09;;;;;;;8.55;4.88;;;8.10;99.90;;;;;;5054859;28;20053;-85
2021/10/26 00:02:35;;;;;;;7.47;4.90;;;8.10;99.90;;;;;;5054669;28;20112;-85
2021/10/26 00:05:01;;;;;;;7.22;4.15;;;8.00;99.90;;;;;;5072625;28;20059;-85
2021/10/26 00:07:27;;;;;;;9.27;4.68;;;7.90;99.90;;;;;;5054574;28;20040;-85
2021/10/26 00:09:53;;;;;;;5.65;4.03;;;7.90;99.90;;;;;;5054450;28;20025;-85
2021/10/26 00:12:19;;;;;;;9.02;4.30;;;8.20;99.90;;;;;;5054376;28;20028;-85
2021/10/26 00:14:45;;;;;;;6.82;4.22;;;8.60;99.90;;;;;;5054386;28;20024;-85
2021/10/26 00:17:10;;;;;;;6.15;4.50;;;8.50;99.90;;;;;;5054415;28;20507;-85
2021/10/26 00:19:36;;;;;;;6.15;4.10;;;8.40;99.90;;;;;;5054343;28;20027;-85
2021/10/26 00:22:02;;;;;;;5.70;4.00;;;8.40;99.90;;;;;;5054413;28;20140;-85
2021/10/26 00:24:28;;;;;;;6.75;4.40;;;8.70;99.90;;;;;;5054588;28;20035;-85
2021/10/26 00:26:54;;;;;;;8.07;3.97;;;8.90;99.90;;;;;;5057960;28;20492;-85
2021/10/26 00:29:19;;;;;;;7.45;4.45;;;8.70;99.90;;;;;;5057972;28;20024;-85
2021/10/26 00:31:45;;;;;;;7.22;4.60;;;8.60;99.90;;;;;;5057917;28;20028;-85
2021/10/26 00:34:11;;;;;;;6.35;3.88;;;8.50;99.90;;;;;;5057829;28;20032;-85
2021/10/26 00:36:37;;;;;;;6.07;3.92;;;8.30;99.90;;;;;;5057876;28;20425;-85
2021/10/26 00:39:04;;;;;;;8.82;4.25;;;8.10;99.90;;;;;;5057890;28;20392;-85
2021/10/26 00:41:30;;;;;;;8.75;4.28;;;8.10;99.90;;;;;;5057725;28;20539;-86
2021/10/26 00:43:56;;;;;;;6.38;4.13;;;8.10;99.90;;;;;;5057615;28;20116;-85
2021/10/26 00:46:34;;;;;;;8.27;4.18;;;8.30;99.90;;;;;;5057610;28;20028;-86
2021/10/26 00:49:01;;;;;;;6.10;3.88;;;8.50;99.90;;;;;;5057517;28;20606;-85
2021/10/26 00:51:29;;;;;;;6.15;4.00;;;8.50;99.90;;;;;;5075442;28;20091;-85
2021/10/26 00:53:56;;;;;;;8.60;4.60;;;8.60;99.90;;;;;;5057528;28;20111;-86
2021/10/26 00:56:23;;;;;;;5.43;4.10;;;8.40;99.90;;;;;;5075574;28;20029;-85
2021/10/26 00:58:50;;;;;;;5.78;3.95;;;8.40;99.90;;;;;;5057203;28;20524;-86
2021/10/26 01:01:16;;;;;;;4.70;3.58;;;8.50;99.90;;;;;;5057400;28;20063;-85
2021/10/26 01:03:42;;;;;;;6.97;3.97;;;8.90;99.90;;;;;;5057264;28;20078;-86
2021/10/26 01:06:08;;;;;;;6.50;4.15;;;9.20;99.90;;;;;;5057334;28;20036;-85
2021/10/26 01:08:34;;;;;;;6.45;3.70;;;9.30;99.90;;;;;;5057231;28;20074;-85
2021/10/26 01:11:00;;;;;;;8.20;4.55;;;9.30;99.90;;;;;;5057249;28;20136;-85
2021/10/26 01:13:26;;;;;;;5.07;3.97;;;9.00;99.90;;;;;;5057367;28;20032;-85
2021/10/26 01:15:56;;;;;;;12.50;5.72;;;9.00;99.90;;;;;;5057057;28;20072;-85
2021/10/26 01:18:25;;;;;;;12.57;5.30;;;9.20;99.90;;;;;;5057083;28;20021;-85
2021/10/26 01:20:52;;;;;;;5.20;3.85;;;9.10;99.90;;;;;;5075013;28;20084;-86
2021/10/26 01:23:19;;;;;;;6.25;3.97;;;9.00;99.90;;;;;;5056924;28;20028;-86
2021/10/26 01:25:45;;;;;;;7.65;4.50;;;8.90;99.90;;;;;;5056884;28;20050;-86
2021/10/26 01:28:11;;;;;;;8.00;4.60;;;8.90;99.90;;;;;;5056850;28;20480;-86
2021/10/26 01:30:37;;;;;;;7.47;4.70;;;8.80;99.90;;;;;;5074738;28;20025;-86
2021/10/26 01:33:05;;;;;;;9.25;4.47;;;8.70;99.90;;;;;;5074626;28;20024;-87
2021/10/26 01:35:32;;;;;;;5.50;4.10;;;8.60;99.90;;;;;;5056839;28;20103;-87
2021/10/26 01:37:58;;;;;;;7.10;4.30;;;8.60;99.90;;;;;;5056745;28;20404;-88
2021/10/26 01:40:24;;;;;;;10.27;5.35;;;8.60;99.90;;;;;;5075034;28;20023;-88
2021/10/26 01:42:51;;;;;;;8.15;4.15;;;8.60;99.90;;;;;;5057112;28;20384;-89
2021/10/26 01:45:17;;;;;;;5.90;3.85;;;8.70;99.90;;;;;;5056808;28;20028;-89
2021/10/26 01:47:44;;;;;;;9.18;4.18;;;9.00;99.90;;;;;;5056847;28;20503;-89
2021/10/26 01:50:12;;;;;;;11.45;4.70;;;9.10;99.90;;;;;;5056740;28;20036;-89
2021/10/26 01:52:38;;;;;;;7.10;4.40;;;9.00;99.90;;;;;;5056761;28;20404;-89
2021/10/26 01:55:05;;;;;;;6.38;4.38;;;8.90;99.90;;;;;;5057134;28;20016;-89
2021/10/26 01:57:31;;;;;;;7.22;4.20;;;8.80;99.90;;;;;;5056702;28;20021;-89
2021/10/26 01:59:57;;;;;;;7.10;4.78;;;8.80;99.90;;;;;;5074194;28;20068;-89
2021/10/26 02:02:25;;;;;;;7.00;4.40;;;8.80;99.90;;;;;;5056634;28;20396;-89
2021/10/26 02:04:51;;;;;;;7.70;5.07;;;8.70;99.90;;;;;;5056852;28;20032;-89
2021/10/26 02:07:17;;;;;;;6.55;4.32;;;8.70;99.90;;;;;;5057243;28;20388;-89
2021/10/26 02:09:43;;;;;;;6.82;4.97;;;8.60;99.90;;;;;;5057183;28;20021;-91
2021/10/26 02:12:09;;;;;;;8.82;5.15;;;8.70;99.90;;;;;;5064472;28;20379;-89
2021/10/26 02:14:34;;;;;;;13.60;4.20;;;8.70;99.90;;;;;;5061965;28;20020;-89
2021/10/26 02:17:01;;;;;;;8.15;4.72;;;8.70;99.90;;;;;;5057783;28;20024;-89
2021/10/26 02:19:27;;;;;;;7.53;3.65;;;8.70;99.90;;;;;;5058036;28;20020;-89
2021/10/26 02:21:54;;;;;;;7.35;4.10;;;8.70;99.90;;;;;;5056693;28;20020;-89
2021/10/26 02:24:20;;;;;;;7.55;4.55;;;8.90;99.90;;;;;;5056092;28;20025;-90
2021/10/26 02:26:46;;;;;;;7.15;4.70;;;9.00;99.90;;;;;;5056246;28;20032;-90
2021/10/26 02:29:13;;;;;;;7.10;4.25;;;8.90;99.90;;;;;;5056057;28;20096;-89
2021/10/26 02:31:39;;;;;;;15.82;8.57;;;8.90;99.90;;;;;;5055871;28;20119;-89
2021/10/26 02:34:05;;;;;;;16.45;9.40;;;8.90;99.90;;;;;;5056257;28;20036;-89
2021/10/26 02:36:31;;;;;;;12.57;7.32;;;8.90;99.90;;;;;;5073832;28;20028;-88
2021/10/26 02:38:57;;;;;;;14.13;7.25;;;8.90;99.90;;;;;;5055821;28;20023;-89
2021/10/26 02:41:23;;;;;;;10.63;6.47;;;8.90;99.90;;;;;;5055756;28;20107;-89
2021/10/26 02:43:49;;;;;;;9.20;5.28;;;8.90;99.90;;;;;;5056850;28;20051;-89
2021/10/26 02:46:14;;;;;;;8.18;5.32;;;8.90;99.90;;;;;;5055774;28;20419;-89
2021/10/26 02:48:42;;;;;;;11.45;5.88;;;8.80;99.90;;;;;;5054949;28;20020;-89
2021/10/26 02:51:08;;;;;;;11.07;5.80;;;8.80;99.90;;;;;;5055636;28;20374;-89
2021/10/26 02:53:34;;;;;;;10.10;6.30;;;8.90;99.90;;;;;;5056007;28;20074;-89
2021/10/26 02:56:00;;;;;;;10.85;6.55;;;8.90;99.90;;;;;;5073300;28;20423;-89
2021/10/26 02:58:26;;;;;;;11.07;5.68;;;8.70;99.90;;;;;;5055492;28;20031;-89
2021/10/26 03:00:52;;;;;;;8.82;5.60;;;8.80;99.90;;;;;;5055193;28;20051;-89
2021/10/26 03:03:18;;;;;;;7.85;4.93;;;9.10;99.90;;;;;;5055432;28;20035;-89
2021/10/26 03:05:44;;;;;;;6.53;4.45;;;9.00;99.90;;;;;;5055599;28;20032;-89
2021/10/26 03:08:10;;;;;;;9.35;4.68;;;8.90;99.90;;;;;;5055267;28;20505;-88
2021/10/26 03:10:38;;;;;;;7.47;4.43;;;9.00;99.90;;;;;;5055795;28;20472;-88
2021/10/26 03:13:05;;;;;;;8.73;4.55;;;9.20;99.90;;;;;;5055269;28;20028;-88
2021/10/26 03:15:31;;;;;;;6.32;4.70;;;9.30;99.90;;;;;;5055175;28;20052;-88
2021/10/26 03:17:57;;;;;;;9.65;4.63;;;9.40;99.90;;;;;;5055198;28;20025;-89
2021/10/26 03:20:23;;;;;;;7.95;4.70;;;9.20;99.90;;;;;;5055644;28;20021;-89
2021/10/26 03:22:49;;;;;;;9.80;4.10;;;9.10;99.90;;;;;;5055223;28;20024;-88
2021/10/26 03:25:15;;;;;;;5.63;4.25;;;9.30;99.90;;;;;;5055182;28;20104;-88
2021/10/26 03:27:41;;;;;;;8.00;4.68;;;9.40;99.90;;;;;;5055132;28;20025;-88
2021/10/26 03:30:09;;;;;;;7.28;4.07;;;9.50;99.90;;;;;;5073161;28;20569;-88
2021/10/26 03:32:35;;;;;;;10.25;4.63;;;9.50;99.90;;;;;;5073030;28;20025;-89
2021/10/26 03:35:01;;;;;;;6.70;4.25;;;9.20;99.90;;;;;;5055134;28;20029;-89
2021/10/26 03:37:27;;;;;;;8.50;5.28;;;9.10;99.90;;;;;;5054954;28;20035;-89
2021/10/26 03:39:56;;;;;;;16.10;6.20;;;8.90;99.90;;;;;;5055218;28;20021;-89
2021/10/26 03:42:25;;;;;;;9.75;5.05;;;8.70;99.90;;;;;;5072952;28;20107;-89
2021/10/26 03:44:52;;;;;;;9.10;5.68;;;8.70;99.90;;;;;;5054940;28;20111;-89
2021/10/26 03:47:18;;;;;;;9.52;4.75;;;8.70;99.90;;;;;;5055155;28;20036;-89
2021/10/26 03:49:45;;;;;;;10.43;5.72;;;8.60;99.90;;;;;;5073006;28;20028;-89
2021/10/26 03:52:11;;;;;;;8.32;5.10;;;8.50;99.90;;;;;;5055085;28;20028;-88
2021/10/26 03:54:38;;;;;;;6.35;4.72;;;8.50;99.90;;;;;;5054895;28;20012;-88
2021/10/26 03:57:10;;;;;;;9.38;5.28;;;8.50;99.90;;;;;;5054919;28;20025;-89
2021/10/26 03:59:37;;;;;;;7.35;4.47;;;8.60;99.90;;;;;;5055676;28;20045;-89
2021/10/26 04:02:19;;;;;;;6.85;4.88;;;8.70;99.90;;;;;;5076716;28;20051;-88
2021/10/26 04:04:45;;;;;;;9.43;5.20;;;8.70;99.90;;;;;;5058737;28;20073;-88
2021/10/26 04:07:11;;;;;;;7.05;5.07;;;8.70;99.90;;;;;;5058789;28;20021;-89
2021/10/26 04:09:57;;;;;;;7.32;4.75;;;8.60;99.90;;;;;;5058616;28;20043;-88
2021/10/26 04:12:24;;;;;;;7.80;4.15;;;8.50;99.90;;;;;;5076894;28;20024;-88
2021/10/26 04:14:54;;;;;;;5.40;4.47;;;8.60;99.90;;;;;;5058531;28;20020;-88
2021/10/26 04:17:21;;;;;;;9.38;5.22;;;8.90;99.90;;;;;;5058482;28;20051;-88
2021/10/26 04:19:48;;;;;;;7.20;4.45;;;8.90;99.90;;;;;;5058878;28;20020;-88
2021/10/26 04:22:20;;;;;;;7.63;4.57;;;8.90;99.90;;;;;;5058769;28;20074;-89
2021/10/26 04:24:47;;;;;;;7.05;4.85;;;9.10;99.90;;;;;;5062494;28;20434;-87
2021/10/26 04:27:14;;;;;;;8.65;5.32;;;9.00;99.90;;;;;;5066382;28;20020;-88
2021/10/26 04:29:41;;;;;;;7.10;4.35;;;9.00;99.90;;;;;;5060326;28;20033;-88
2021/10/26 04:32:09;;;;;;;7.40;4.13;;;9.10;99.90;;;;;;5059214;28;20472;-88
2021/10/26 04:34:36;;;;;;;6.53;4.88;;;9.40;99.90;;;;;;5058478;28;20020;-88
2021/10/26 04:37:02;;;;;;;10.43;4.70;;;9.40;99.90;;;;;;5058853;28;20024;-87
2021/10/26 04:39:28;;;;;;;6.70;4.80;;;9.50;99.90;;;;;;5075828;28;20066;-87
2021/10/26 04:41:54;;;;;;;9.75;4.82;;;9.40;99.90;;;;;;5057634;28;20123;-87
2021/10/26 04:44:20;;;;;;;11.68;5.28;;;9.30;99.90;;;;;;5057696;28;20154;-87
2021/10/26 04:46:46;;;;;;;7.93;4.32;;;9.20;99.90;;;;;;5057565;28;20059;-87
2021/10/26 04:49:12;;;;;;;9.95;4.95;;;9.20;99.90;;;;;;5057584;28;20029;-87
2021/10/26 04:51:38;;;;;;;7.93;5.28;;;9.00;99.90;;;;;;5057457;28;20035;-87
2021/10/26 04:54:04;;;;;;;6.72;4.55;;;8.90;99.90;;;;;;5057590;28;20032;-87
2021/10/26 04:56:30;;;;;;;8.35;4.88;;;8.70;99.90;;;;;;5057452;28;20075;-87
2021/10/26 04:58:56;;;;;;;9.88;4.93;;;8.60;99.90;;;;;;5057571;28;20024;-88
2021/10/26 05:01:21;;;;;;;10.68;5.00;;;8.50;99.90;;;;;;5075716;28;20425;-88
2021/10/26 05:03:47;;;;;;;5.93;4.45;;;8.50;99.90;;;;;;5058594;28;20025;-87
2021/10/26 05:06:13;;;;;;;7.40;4.90;;;8.60;99.90;;;;;;5057385;28;20052;-87
2021/10/26 05:08:38;;;;;;;9.38;4.97;;;8.80;99.90;;;;;;5057298;28;20395;-87
2021/10/26 05:11:04;;;;;;;8.65;5.03;;;9.10;99.90;;;;;;5056701;28;20029;-87
2021/10/26 05:13:32;;;;;;;9.43;5.28;;;9.10;99.90;;;;;;5056837;28;20503;-87
2021/10/26 05:15:58;;;;;;;7.60;4.68;;;9.00;99.90;;;;;;5057202;28;20021;-87
2021/10/26 05:18:24;;;;;;;13.02;6.90;;;9.10;99.90;;;;;;5057639;28;20024;-87
2021/10/26 05:20:52;;;;;;;7.93;5.07;;;9.00;99.90;;;;;;5057133;28;20107;-87
2021/10/26 05:23:18;;;;;;;6.18;4.20;;;8.90;99.90;;;;;;5057017;28;20151;-87
2021/10/26 05:25:49;;;;;;;7.50;4.95;;;9.10;99.90;;;;;;5056973;28;20547;-87
2021/10/26 05:28:15;;;;;;;10.95;5.45;;;9.10;99.90;;;;;;5057012;28;20487;-87
2021/10/26 05:30:41;;;;;;;6.00;5.05;;;8.90;99.90;;;;;;5056946;28;20040;-87
2021/10/26 05:33:08;;;;;;;8.68;5.05;;;8.90;99.90;;;;;;5074742;28;20032;-87
2021/10/26 05:35:34;;;;;;;8.85;6.03;;;8.90;99.90;;;;;;5056784;28;20476;-87
2021/10/26 05:38:00;;;;;;;9.68;6.35;;;8.70;99.90;;;;;;5056689;28;20024;-87
2021/10/26 05:40:25;;;;;;;5.38;3.90;;;8.70;99.90;;;;;;5074610;28;20021;-87
2021/10/26 05:42:51;;;;;;;7.40;5.28;;;8.80;99.90;;;;;;5074602;28;20021;-87
2021/10/26 05:45:17;;;;;;;11.07;6.60;;;8.90;99.90;;;;;;5074644;28;20439;-87
2021/10/26 05:47:44;;;;;;;13.52;6.10;;;8.80;99.90;;;;;;5056476;28;20048;-87
2021/10/26 05:50:10;;;;;;;7.50;5.30;;;8.70;99.90;;;;;;5074685;28;20086;-87
2021/10/26 05:52:37;;;;;;;10.15;6.05;;;8.70;99.90;;;;;;5074597;28;20461;-87
2021/10/26 05:55:03;;;;;;;9.55;6.07;;;8.60;99.90;;;;;;5056692;28;20103;-87
2021/10/26 05:57:31;;;;;;;9.73;6.63;;;8.70;99.90;;;;;;5056267;28;20028;-87
2021/10/26 05:59:57;;;;;;;9.55;6.68;;;8.80;99.90;;;;;;5052820;28;20053;-87
2021/10/26 06:02:23;;;;;;;6.85;5.25;;;8.70;99.90;;;;;;5052962;28;20025;-87
2021/10/26 06:04:49;;;;;;;16.13;6.40;;;8.80;99.90;;;;;;5052872;28;20078;-87
2021/10/26 06:07:15;;;;;;;8.60;5.78;;;8.80;99.90;;;;;;5052797;28;20024;-87
2021/10/26 06:09:40;;;;;;;8.07;5.30;;;8.80;99.90;;;;;;5052882;28;20036;-87
2021/10/26 06:12:09;;;;;;;10.18;5.07;;;8.80;99.90;;;;;;5052803;28;20116;-87
2021/10/26 06:14:36;;;;;;;6.93;4.95;;;8.90;99.90;;;;;;5054411;28;20050;-87
2021/10/26 06:17:02;;;;;;;10.52;5.07;;;8.90;99.90;;;;;;5054599;28;20032;-87
2021/10/26 06:19:29;;;;;;;6.75;5.00;;;9.10;99.90;;;;;;5053368;28;20021;-87
2021/10/26 06:21:56;;;;;;;14.10;6.38;;;9.10;99.90;;;;;;5057095;28;20048;-88
2021/10/26 06:24:22;;;;;;;16.40;8.90;;;8.80;99.90;;;;;;5052610;28;20029;-87
2021/10/26 06:26:48;;;;;;;15.95;8.13;;;8.80;99.90;;;;;;5055815;28;20032;-87
2021/10/26 06:29:13;;;;;;;13.18;5.93;;;8.80;99.90;;;;;;5054797;28;20463;-88
2021/10/26 06:31:39;;;;;;;15.18;9.77;;;9.00;99.90;;;;;;5053893;28;20108;-88
2021/10/26 06:34:05;;;;;;;17.98;9.63;;;9.10;99.90;;;;;;5052950;28;20021;-88
2021/10/26 06:36:31;;;;;;;10.93;7.47;;;9.00;99.90;;;;;;5053010;28;20115;-88
2021/10/26 06:38:56;;;;;;;10.85;6.72;;;9.00;99.90;;;;;;5062630;28;20521;-87
2021/10/26 06:41:22;;;;;;;8.55;5.60;;;9.10;99.90;;;;;;5058330;28;20021;-87
2021/10/26 06:43:48;;;;;;;7.32;4.78;;;9.10;99.90;;;;;;5053161;28;20025;-87
2021/10/26 06:46:14;;;;;;;7.88;5.63;;;9.20;99.90;;;;;;5054156;28;20048;-88
2021/10/26 06:48:40;;;;;;;11.60;6.65;;;9.40;99.90;;;;;;5052394;28;20107;-87
2021/10/26 06:51:06;;;;;;;10.85;5.68;;;9.60;99.90;;;;;;5052258;28;20036;-88
2021/10/26 06:53:36;;;;;;;9.38;5.95;;;9.60;99.90;;;;;;5052259;28;20021;-86
2021/10/26 06:56:05;;;;;;;11.25;5.97;;;9.80;99.90;;;;;;5053445;28;20032;-86
2021/10/26 06:58:31;;;;;;;11.52;6.53;;;9.90;99.90;;;;;;5052057;28;20028;-86
2021/10/26 07:00:57;;;;;;;13.77;6.97;;;9.90;99.90;;;;;;5051993;28;20092;-86
2021/10/26 07:03:23;;;;;;;9.77;6.13;;;9.90;99.90;;;;;;5051970;28;20504;-86
2021/10/26 07:05:48;;;;;;;9.70;5.50;;;10.00;99.90;;;;;;5052065;28;20028;-88
2021/10/26 07:08:14;;;;;;;10.18;6.53;;;10.00;99.90;;;;;;5052441;28;20560;-87
2021/10/26 07:10:40;;;;;;;15.30;8.93;;;9.90;99.90;;;;;;5052309;28;20025;-88
2021/10/26 07:13:07;;;;;;;51.92;26.10;;;10.00;99.90;;;;;;5052356;28;20376;-88
2021/10/26 07:15:33;;;;;;;12.32;7.43;;;10.00;99.90;;;;;;5052076;28;20500;-88
2021/10/26 07:17:59;;;;;;;12.18;7.75;;;9.90;99.90;;;;;;5052061;28;20025;-88
2021/10/26 07:20:25;;;;;;;10.43;7.07;;;10.00;99.90;;;;;;5051862;28;20055;-88
2021/10/26 07:22:52;;;;;;;16.67;9.15;;;9.90;99.90;;;;;;5051810;28;20025;-88
2021/10/26 07:25:20;;;;;;;13.18;7.97;;;9.80;99.90;;;;;;5053100;28;20048;-87
2021/10/26 07:27:47;;;;;;;15.50;9.10;;;9.80;99.90;;;;;;5051943;28;20028;-88
2021/10/26 07:30:13;;;;;;;9.80;7.22;;;9.60;99.90;;;;;;5051962;28;20383;-88
2021/10/26 07:32:40;;;;;;;17.15;9.07;;;9.60;99.90;;;;;;5052931;28;20028;-88
2021/10/26 07:35:07;;;;;;;9.80;7.18;;;9.60;99.90;;;;;;5053186;28;20075;-87
2021/10/26 07:37:40;;;;;;;11.65;6.75;;;9.50;99.90;;;;;;5055780;28;20021;-88
2021/10/26 07:40:06;;;;;;;13.20;8.07;;;9.60;99.90;;;;;;5056051;28;20489;-88
2021/10/26 07:42:32;;;;;;;16.77;9.27;;;9.60;99.90;;;;;;5057006;28;20361;-88
2021/10/26 07:44:58;;;;;;;14.15;7.70;;;9.60;99.90;;;;;;5055716;28;20021;-88
2021/10/26 07:47:25;;;;;;;15.88;9.60;;;9.70;99.90;;;;;;5057212;28;20025;-88
2021/10/26 07:49:53;;;;;;;14.10;8.80;;;9.70;99.90;;;;;;5055631;28;20029;-88
2021/10/26 07:52:21;;;;;;;16.10;8.73;;;9.80;99.90;;;;;;5055620;28;20025;-88
2021/10/26 07:54:52;;;;;;;14.43;7.68;;;9.90;99.90;;;;;;5057902;28;20021;-88
2021/10/26 07:57:19;;;;;;;11.32;7.38;;;10.00;99.90;;;;;;5055955;28;20042;-89
2021/10/26 07:59:46;;;;;;;10.90;8.57;;;10.10;99.90;;;;;;5055376;28;20122;-89
2021/10/26 08:02:14;;;;;;;12.23;8.00;;;10.20;99.90;;;;;;5055680;28;20048;-88
2021/10/26 08:04:40;;;;;;;12.43;7.90;;;10.20;99.90;;;;;;5056527;28;20040;-88
2021/10/26 08:07:07;;;;;;;12.27;7.85;;;10.20;99.90;;;;;;5056807;28;20103;-88
2021/10/26 08:09:33;;;;;;;13.38;8.10;;;10.20;99.90;;;;;;5055443;28;20036;-89
2021/10/26 08:11:59;;;;;;;28.65;18.80;;;10.40;99.90;;;;;;5055441;28;20485;-89
2021/10/26 08:14:25;;;;;;;22.55;14.00;;;10.50;99.90;;;;;;5055283;28;20078;-89
2021/10/26 08:16:51;;;;;;;15.43;9.48;;;10.80;99.90;;;;;;5055651;28;20020;-88
2021/10/26 08:19:16;;;;;;;38.40;20.05;;;10.90;99.90;;;;;;5055297;28;20393;-89
2021/10/26 08:21:42;;;;;;;21.45;10.35;;;11.00;99.90;;;;;;5055200;28;20025;-89
2021/10/26 08:24:09;;;;;;;8.95;6.30;;;11.20;99.90;;;;;;5055317;28;20049;-88
2021/10/26 08:26:40;;;;;;;10.85;6.57;;;11.30;99.90;;;;;;5055385;28;20039;-89
2021/10/26 08:37:12;;;;;;;17.63;7.82;;;11.40;99.90;;;;;;5056410;28;20021;-86
2021/10/26 08:39:42;;;;;;;10.60;6.25;;;11.40;99.90;;;;;;5055265;28;20021;-88
2021/10/26 08:42:15;;;;;;;8.90;5.35;;;11.30;99.90;;;;;;5056469;28;20029;-89
2021/10/26 08:44:42;;;;;;;10.52;6.13;;;11.40;99.90;;;;;;5059802;28;20025;-89
2021/10/26 08:47:09;;;;;;;9.57;5.63;;;11.60;99.90;;;;;;5059788;28;20119;-89
2021/10/26 08:49:35;;;;;;;8.55;5.22;;;11.60;99.90;;;;;;5056399;28;20437;-88
2021/10/26 08:52:05;;;;;;;10.95;5.38;;;11.70;99.90;;;;;;5055085;28;20538;-88
2021/10/26 08:54:32;;;;;;;14.30;6.28;;;11.80;99.90;;;;;;5056216;28;20025;-88
2021/10/26 08:56:59;;;;;;;10.38;5.63;;;11.80;99.90;;;;;;5055688;28;20090;-88
2021/10/26 08:59:25;;;;;;;7.53;4.35;;;11.80;99.90;;;;;;5054273;28;20049;-89
2021/10/26 09:01:58;;;;;;;13.75;5.03;;;11.90;99.90;;;;;;5054589;28;20028;-88
2021/10/26 09:04:35;;;;;;;8.13;5.18;;;11.90;99.90;;;;;;5054506;28;20583;-85
2021/10/26 09:07:06;;;;;;;14.65;5.45;;;11.90;99.90;;;;;;5055603;28;20024;-87
2021/10/26 09:09:36;;;;;;;15.32;4.72;;;12.00;99.90;;;;;;5054139;28;20098;-87
2021/10/26 09:17:28;;;;;;;9.63;4.50;;;12.00;99.90;;;;;;5055573;28;20094;-87
2021/10/26 09:19:56;;;;;;;13.35;4.95;;;12.10;99.90;;;;;;5055025;28;20017;-87
2021/10/26 09:22:24;;;;;;;10.07;4.97;;;12.30;99.90;;;;;;5053901;28;20025;-88
2021/10/26 09:25:02;;;;;;;10.32;5.32;;;12.30;99.90;;;;;;5053737;28;20464;-87
2021/10/26 09:27:28;;;;;;;13.98;6.13;;;12.40;99.90;;;;;;5055031;28;20036;-86
2021/10/26 09:29:57;;;;;;;9.52;5.88;;;12.50;99.90;;;;;;5053791;28;20021;-87
2021/10/26 09:32:33;;;;;;;9.25;5.38;;;12.30;99.90;;;;;;5054849;28;20025;-87
2021/10/26 09:35:01;;;;;;;9.52;5.45;;;12.20;99.90;;;;;;5053520;28;20396;-87
2021/10/26 09:37:35;;;;;;;11.88;5.60;;;12.50;99.90;;;;;;5053800;28;20036;-87
2021/10/26 09:40:02;;;;;;;13.63;5.47;;;12.70;99.90;;;;;;5053702;28;20017;-87
2021/10/26 09:42:42;;;;;;;8.50;4.93;;;12.90;99.90;;;;;;5053511;28;20572;-87
2021/10/26 09:45:11;;;;;;;11.65;5.10;;;12.90;99.90;;;;;;5053595;28;20021;-87
2021/10/26 09:47:38;;;;;;;10.63;4.05;;;12.90;99.90;;;;;;5053209;28;20123;-87
2021/10/26 09:50:07;;;;;;;12.38;4.97;;;13.10;99.90;;;;;;5053548;28;20055;-87
2021/10/26 09:52:45;;;;;;;10.40;4.82;;;13.40;99.90;;;;;;5053401;28;20452;-86
2021/10/26 09:55:13;;;;;;;6.88;4.30;;;13.60;99.90;;;;;;5053411;28;20128;-87
2021/10/26 09:57:53;;;;;;;16.13;6.55;;;13.50;99.90;;;;;;5053290;28;20021;-86
2021/10/26 10:00:31;;;;;;;8.85;3.45;;;13.40;99.90;;;;;;5068059;28;20036;-85
2021/10/26 10:03:05;;;;;;;7.28;2.20;;;13.30;99.90;;;;;;5074579;28;20035;-87
2021/10/26 10:05:51;;;;;;;7.43;2.70;;;13.20;99.90;;;;;;5056480;28;20492;-86
2021/10/26 10:08:34;;;;;;;7.50;2.30;;;13.20;99.90;;;;;;5074761;28;20047;-86
2021/10/26 10:11:11;;;;;;;3.75;2.00;;;13.10;99.90;;;;;;5056111;28;20032;-85
2021/10/26 10:13:45;;;;;;;5.15;1.90;;;13.10;99.90;;;;;;5056048;28;20031;-85
2021/10/26 10:16:15;;;;;;;6.50;2.33;;;13.20;99.90;;;;;;5056002;28;20077;-85
2021/10/26 10:18:45;;;;;;;9.68;1.80;;;13.40;99.90;;;;;;5055926;28;20029;-85
2021/10/26 10:21:14;;;;;;;6.82;1.85;;;14.20;99.90;;;;;;5055876;28;20023;-85
2021/10/26 10:23:44;;;;;;;6.38;1.90;;;15.00;99.90;;;;;;5055943;28;20534;-87
2021/10/26 10:26:17;;;;;;;8.15;2.65;;;15.90;99.90;;;;;;5056361;28;20024;-87
2021/10/26 10:28:50;;;;;;;5.72;1.70;;;16.40;99.90;;;;;;5040167;28;20149;-88
2021/10/26 10:31:23;;;;;;;4.90;1.30;;;15.90;99.90;;;;;;5057325;28;20345;-87
2021/10/26 10:33:49;;;;;;;3.28;1.23;;;15.20;99.90;;;;;;5055996;28;20557;-88
2021/10/26 10:36:17;;;;;;;7.78;2.50;;;15.10;99.90;;;;;;5074119;28;20490;-88
2021/10/26 10:38:44;;;;;;;5.63;1.48;;;15.20;99.90;;;;;;5074476;28;20052;-88
2021/10/26 10:41:34;;;;;;;4.05;1.30;;;15.60;99.90;;;;;;5074361;28;20057;-88
2021/10/26 10:44:18;;;;;;;4.43;1.63;;;15.00;99.90;;;;;;5056539;28;20082;-88
2021/10/26 10:46:48;;;;;;;5.72;1.60;;;14.60;99.90;;;;;;5056332;28;20025;-88
2021/10/26 10:49:19;;;;;;;3.47;1.40;;;14.40;99.90;;;;;;5055923;28;20396;-88
2021/10/26 10:52:00;;;;;;;4.80;1.48;;;14.40;99.90;;;;;;5056174;28;20539;-89
2021/10/26 10:54:39;;;;;;;3.45;1.38;;;14.40;99.90;;;;;;5063560;28;20092;-88
2021/10/26 10:57:20;;;;;;;2.92;1.00;;;14.50;99.90;;;;;;5061206;28;20028;-88
2021/10/26 10:59:54;;;;;;;4.20;1.10;;;14.70;99.90;;;;;;5056696;28;20056;-89
2021/10/26 11:02:43;;;;;;;;;;;16.10;99.90;;;;;;5073842;28;20419;-87
2021/10/26 11:05:35;;;;;;;5.03;1.15;;;16.90;99.90;;;;;;5042753;28;19954;-88
2021/10/26 11:08:06;;;;;;;3.00;1.23;;;16.10;99.90;;;;;;5055604;28;20024;-88
2021/10/26 11:10:50;;;;;;;2.40;1.10;;;15.40;99.90;;;;;;5054560;28;20028;-88
2021/10/26 11:13:20;;;;;;;3.85;1.15;;;14.80;99.90;;;;;;5073268;28;20032;-87
2021/10/26 11:15:49;;;;;;;5.80;1.00;;;14.60;99.90;;;;;;5055137;28;20396;-88
2021/10/26 11:18:33;;;;;;;3.08;0.80;;;14.40;99.90;;;;;;5056296;28;20021;-89
2021/10/26 11:21:24;;;;;;;4.43;1.00;;;14.20;99.90;;;;;;5055900;28;20021;-87
2021/10/26 11:23:57;;;;;;;5.63;0.98;;;14.30;99.90;;;;;;5046602;28;20025;-88
2021/10/26 11:26:44;;;;;;;3.80;0.82;;;14.20;99.90;;;;;;5056225;28;20041;-88
2021/10/26 11:29:29;;;;;;;3.63;1.30;;;14.20;99.90;;;;;;5055761;28;20025;-88
2021/10/26 11:31:55;;;;;;;2.97;0.90;;;14.20;99.90;;;;;;5055044;28;20285;-88
2021/10/26 11:34:24;;;;;;;4.53;1.10;;;14.20;99.90;;;;;;5055098;28;20506;-89
2021/10/26 11:37:02;;;;;;;5.50;1.40;;;14.20;99.90;;;;;;5055343;28;20032;-89
2021/10/26 11:39:29;;;;;;;3.55;1.10;;;14.20;99.90;;;;;;5055012;28;20365;-88
2021/10/26 11:41:58;;;;;;;2.85;1.00;;;14.30;99.90;;;;;;5055155;28;20362;-88
2021/10/26 11:44:24;;;;;;;3.08;1.13;;;14.20;99.90;;;;;;5055148;28;20480;-88
2021/10/26 11:46:50;;;;;;;5.25;1.25;;;14.10;99.90;;;;;;5055251;28;20143;-88
2021/10/26 11:49:21;;;;;;;2.88;1.10;;;14.10;99.90;;;;;;5055068;28;20403;-88
2021/10/26 11:51:58;;;;;;;2.08;1.13;;;14.00;99.90;;;;;;5054950;28;20024;-87
2021/10/26 11:54:25;;;;;;;2.88;1.35;;;14.00;99.90;;;;;;5055676;28;20051;-88
2021/10/26 11:56:52;;;;;;;4.57;1.30;;;13.90;99.90;;;;;;5054781;28;20028;-89
2021/10/26 11:59:26;;;;;;;4.30;1.42;;;13.90;99.90;;;;;;5054967;28;20560;-88
2021/10/26 12:01:55;;;;;;;3.25;1.35;;;13.80;99.90;;;;;;5055899;28;20020;-88
2021/10/26 12:04:22;;;;;;;7.15;1.50;;;13.90;99.90;;;;;;5072979;28;20479;-88
2021/10/26 12:06:53;;;;;;;4.97;1.60;;;14.10;99.90;;;;;;5038666;28;20407;-88
2021/10/26 12:09:22;;;;;;;5.50;1.13;;;14.20;99.90;;;;;;5054721;28;20028;-88
2021/10/26 12:11:49;;;;;;;4.65;1.45;;;14.40;99.90;;;;;;5054768;28;20055;-88
2021/10/26 12:14:21;;;;;;;4.88;1.55;;;14.50;99.90;;;;;;5054823;28;20055;-89
2021/10/26 12:17:07;;;;;;;6.38;1.30;;;14.60;99.90;;;;;;5054790;28;20484;-88
2021/10/26 12:19:42;;;;;;;6.82;1.40;;;14.90;99.90;;;;;;5054635;28;20024;-88
2021/10/26 12:22:18;;;;;;;3.97;1.80;;;15.30;99.90;;;;;;5057996;28;20043;-88
2021/10/26 12:24:59;;;;;;;3.35;1.08;;;15.50;99.90;;;;;;5058631;28;20024;-88
2021/10/26 12:27:31;;;;;;;2.85;1.00;;;15.50;99.90;;;;;;5076464;28;20032;-88
2021/10/26 12:30:12;;;;;;;2.95;1.10;;;15.70;99.90;;;;;;5058310;28;20594;-88
2021/10/26 12:32:41;;;;;;;5.35;1.10;;;15.40;99.90;;;;;;5058172;28;20035;-89
2021/10/26 12:35:11;;;;;;;5.68;1.20;;;15.40;99.90;;;;;;5058252;28;20024;-88
2021/10/26 12:37:37;;;;;;;5.32;1.05;;;15.30;99.90;;;;;;5058043;28;20123;-89
2021/10/26 12:40:11;;;;;;;6.60;1.38;;;15.30;99.90;;;;;;5075838;28;20095;-88
2021/10/26 12:42:39;;;;;;;4.60;1.10;;;15.30;99.90;;;;;;5058001;28;20032;-88
2021/10/26 12:45:10;;;;;;;3.80;1.08;;;15.30;99.90;;;;;;5075955;28;20472;-88
2021/10/26 12:47:56;;;;;;;3.58;1.00;;;15.20;99.90;;;;;;5058304;28;20029;-88
2021/10/26 12:50:51;;;;;;;3.33;1.30;;;14.80;99.90;;;;;;5058395;28;20028;-88
2021/10/26 12:53:39;;;;;;;4.63;1.20;;;14.60;99.90;;;;;;5057645;28;20020;-88
2021/10/26 12:56:25;;;;;;;2.90;1.10;;;14.40;99.90;;;;;;5057944;28;20082;-88
2021/10/26 12:59:11;;;;;;;6.95;1.17;;;14.30;99.90;;;;;;5057781;28;20479;-89
2021/10/26 13:01:41;;;;;;;5.35;1.27;;;14.20;99.90;;;;;;5058699;28;20028;-88
2021/10/26 13:04:20;;;;;;;3.13;1.10;;;14.20;99.90;;;;;;5076184;28;20040;-88
2021/10/26 13:07:00;;;;;;;4.65;1.50;;;14.20;99.90;;;;;;5064119;28;20024;-88
2021/10/26 13:09:38;;;;;;;5.57;1.45;;;14.20;99.90;;;;;;5080279;28;20028;-88
2021/10/26 13:12:20;;;;;;;2.85;1.20;;;14.20;99.90;;;;;;5076731;28;20434;-88